sensor_id;sensor_type;location;lat;lon;timestamp;pressure;altitude;pressure_sealevel;temperature;humidity
73455;BME280;61690;51.824;6.306;2022-09-03T00:02:25;101073.75;;;23.76;35.81
73455;BME280;61690;51.824;6.306;2022-09-03T00:04:59;101071.34;;;23.73;35.77
73455;BME280;61690;51.824;6.306;2022-09-03T00:07:45;101075.09;;;23.71;35.90
73455;BME280;61690;51.824;6.306;2022-09-03T00:10:18;101066.44;;;23.68;36.11
73455;BME280;61690;51.824;6.306;2022-09-03T00:12:47;101070.75;;;23.69;35.72
73455;BME280;61690;51.824;6.306;2022-09-03T00:15:18;101079.13;;;23.65;35.87
73455;BME280;61690;51.824;6.306;2022-09-03T00:17:50;101077.28;;;23.65;35.99
73455;BME280;61690;51.824;6.306;2022-09-03T00:20:26;101068.50;;;23.65;36.10
73455;BME280;61690;51.824;6.306;2022-09-03T00:22:57;101077.06;;;23.68;36.12
73455;BME280;61690;51.824;6.306;2022-09-03T00:25:33;101078.13;;;23.66;36.14
73455;BME280;61690;51.824;6.306;2022-09-03T00:28:06;101072.69;;;23.67;36.06
73455;BME280;61690;51.824;6.306;2022-09-03T00:30:37;101072.09;;;23.64;36.27
73455;BME280;61690;51.824;6.306;2022-09-03T00:33:08;101075.47;;;23.66;36.01
73455;BME280;61690;51.824;6.306;2022-09-03T00:35:43;101074.63;;;23.65;36.26
73455;BME280;61690;51.824;6.306;2022-09-03T00:38:11;101075.75;;;23.63;36.21
73455;BME280;61690;51.824;6.306;2022-09-03T00:40:43;101075.75;;;23.63;36.10
73455;BME280;61690;51.824;6.306;2022-09-03T00:45:55;101067.91;;;23.61;36.05
73455;BME280;61690;51.824;6.306;2022-09-03T00:48:25;101080.06;;;23.64;36.03
73455;BME280;61690;51.824;6.306;2022-09-03T00:56:38;101070.94;;;23.57;36.28
73455;BME280;61690;51.824;6.306;2022-09-03T01:04:36;101076.25;;;23.57;36.39
73455;BME280;61690;51.824;6.306;2022-09-03T01:07:16;101079.06;;;23.55;36.59
73455;BME280;61690;51.824;6.306;2022-09-03T01:10:01;101073.03;;;23.53;36.40
73455;BME280;61690;51.824;6.306;2022-09-03T01:36:36;101077.22;;;23.56;36.82
73455;BME280;61690;51.824;6.306;2022-09-03T01:39:07;101080.59;;;23.58;36.68
73455;BME280;61690;51.824;6.306;2022-09-03T01:42:01;101075.69;;;23.53;36.70
73455;BME280;61690;51.824;6.306;2022-09-03T01:50:09;101068.69;;;23.52;36.88
73455;BME280;61690;51.824;6.306;2022-09-03T01:52:46;101064.91;;;23.55;36.73
73455;BME280;61690;51.824;6.306;2022-09-03T01:55:32;101074.00;;;23.52;36.79
73455;BME280;61690;51.824;6.306;2022-09-03T01:58:05;101069.50;;;23.53;36.68
73455;BME280;61690;51.824;6.306;2022-09-03T02:00:34;101060.59;;;23.54;36.91
73455;BME280;61690;51.824;6.306;2022-09-03T02:03:05;101072.31;;;23.51;36.83
73455;BME280;61690;51.824;6.306;2022-09-03T02:05:32;101069.50;;;23.53;36.69
73455;BME280;61690;51.824;6.306;2022-09-03T02:08:05;101073.41;;;23.48;36.93
73455;BME280;61690;51.824;6.306;2022-09-03T02:11:03;101075.94;;;23.50;36.79
73455;BME280;61690;51.824;6.306;2022-09-03T02:13:37;101074.38;;;23.47;36.70
73455;BME280;61690;51.824;6.306;2022-09-03T02:16:21;101066.41;;;23.47;36.83
73455;BME280;61690;51.824;6.306;2022-09-03T02:18:55;101066.41;;;23.47;36.81
73455;BME280;61690;51.824;6.306;2022-09-03T02:21:23;101069.31;;;23.44;36.69
73455;BME280;61690;51.824;6.306;2022-09-03T02:23:49;101076.19;;;23.47;36.87
73455;BME280;61690;51.824;6.306;2022-09-03T02:26:18;101080.66;;;23.46;36.95
73455;BME280;61690;51.824;6.306;2022-09-03T02:28:44;101070.31;;;23.43;36.89
73455;BME280;61690;51.824;6.306;2022-09-03T02:31:10;101071.97;;;23.44;36.96
73455;BME280;61690;51.824;6.306;2022-09-03T02:33:42;101068.09;;;23.48;36.54
73455;BME280;61690;51.824;6.306;2022-09-03T02:36:10;101072.97;;;23.43;36.87
73455;BME280;61690;51.824;6.306;2022-09-03T02:38:36;101067.50;;;23.45;37.01
73455;BME280;61690;51.824;6.306;2022-09-03T02:41:02;101067.25;;;23.48;36.71
73455;BME280;61690;51.824;6.306;2022-09-03T02:43:33;101077.03;;;23.47;36.84
73455;BME280;61690;51.824;6.306;2022-09-03T02:46:03;101073.69;;;23.45;36.85
73455;BME280;61690;51.824;6.306;2022-09-03T02:48:29;101062.19;;;23.45;36.99
73455;BME280;61690;51.824;6.306;2022-09-03T02:50:55;101068.38;;;23.45;37.00
73455;BME280;61690;51.824;6.306;2022-09-03T02:53:20;101066.66;;;23.44;36.87
73455;BME280;61690;51.824;6.306;2022-09-03T02:55:46;101068.59;;;23.42;36.90
73455;BME280;61690;51.824;6.306;2022-09-03T02:58:11;101065.00;;;23.43;37.02
73455;BME280;61690;51.824;6.306;2022-09-03T03:00:37;101057.75;;;23.45;36.93
73455;BME280;61690;51.824;6.306;2022-09-03T03:03:04;101061.34;;;23.44;37.00
73455;BME280;61690;51.824;6.306;2022-09-03T03:05:51;101068.59;;;23.42;37.02
73455;BME280;61690;51.824;6.306;2022-09-03T03:08:18;101068.84;;;23.39;37.14
73455;BME280;61690;51.824;6.306;2022-09-03T03:10:46;101066.59;;;23.35;37.22
73455;BME280;61690;51.824;6.306;2022-09-03T03:13:12;101059.47;;;23.35;37.27
73455;BME280;61690;51.824;6.306;2022-09-03T03:15:37;101058.50;;;23.36;37.01
73455;BME280;61690;51.824;6.306;2022-09-03T03:18:03;101051.63;;;23.34;37.19
73455;BME280;61690;51.824;6.306;2022-09-03T03:20:28;101061.03;;;23.38;37.25
73455;BME280;61690;51.824;6.306;2022-09-03T03:22:54;101054.16;;;23.35;36.96
73455;BME280;61690;51.824;6.306;2022-09-03T03:25:19;101049.13;;;23.32;37.23
73455;BME280;61690;51.824;6.306;2022-09-03T03:27:44;101051.50;;;23.35;37.11
73455;BME280;61690;51.824;6.306;2022-09-03T03:30:10;101050.66;;;23.35;37.21
73455;BME280;61690;51.824;6.306;2022-09-03T03:32:36;101056.63;;;23.27;37.40
73455;BME280;61690;51.824;6.306;2022-09-03T03:35:03;101054.56;;;23.31;37.32
73455;BME280;61690;51.824;6.306;2022-09-03T03:37:30;101054.66;;;23.29;37.14
73455;BME280;61690;51.824;6.306;2022-09-03T03:39:55;101049.59;;;23.26;37.45
73455;BME280;61690;51.824;6.306;2022-09-03T03:42:21;101049.47;;;23.27;37.33
73455;BME280;61690;51.824;6.306;2022-09-03T03:44:46;101053.00;;;23.28;37.24
73455;BME280;61690;51.824;6.306;2022-09-03T03:47:11;101058.56;;;23.25;37.29
73455;BME280;61690;51.824;6.306;2022-09-03T03:49:36;101058.56;;;23.25;37.27
73455;BME280;61690;51.824;6.306;2022-09-03T03:52:02;101057.84;;;23.23;37.49
73455;BME280;61690;51.824;6.306;2022-09-03T03:54:28;101055.91;;;23.25;37.40
73455;BME280;61690;51.824;6.306;2022-09-03T03:56:55;101052.25;;;23.26;37.21
73455;BME280;61690;51.824;6.306;2022-09-03T03:59:20;101062.88;;;23.26;37.36
73455;BME280;61690;51.824;6.306;2022-09-03T04:01:45;101052.53;;;23.23;37.26
73455;BME280;61690;51.824;6.306;2022-09-03T04:04:11;101051.09;;;23.19;37.62
73455;BME280;61690;51.824;6.306;2022-09-03T04:06:37;101051.34;;;23.16;37.64
73455;BME280;61690;51.824;6.306;2022-09-03T04:09:02;101048.44;;;23.19;37.47
73455;BME280;61690;51.824;6.306;2022-09-03T04:11:27;101050.25;;;23.18;37.48
73455;BME280;61690;51.824;6.306;2022-09-03T04:13:53;101052.19;;;23.16;37.63
73455;BME280;61690;51.824;6.306;2022-09-03T04:16:24;101051.09;;;23.19;37.59
73455;BME280;61690;51.824;6.306;2022-09-03T04:18:52;101050.25;;;23.18;37.47
73455;BME280;61690;51.824;6.306;2022-09-03T04:21:22;101046.25;;;23.24;37.38
73455;BME280;61690;51.824;6.306;2022-09-03T04:23:49;101049.16;;;23.21;37.47
73455;BME280;61690;51.824;6.306;2022-09-03T04:26:17;101050.50;;;23.15;37.56
73455;BME280;61690;51.824;6.306;2022-09-03T04:28:43;101039.19;;;23.13;37.73
73455;BME280;61690;51.824;6.306;2022-09-03T04:31:11;101042.56;;;23.15;37.56
73455;BME280;61690;51.824;6.306;2022-09-03T04:33:37;101050.41;;;23.17;37.43
73455;BME280;61690;51.824;6.306;2022-09-03T04:36:17;101039.91;;;23.15;37.41
73455;BME280;61690;51.824;6.306;2022-09-03T04:38:45;101036.25;;;23.16;37.52
73455;BME280;61690;51.824;6.306;2022-09-03T04:41:13;101045.56;;;23.10;37.52
73455;BME280;61690;51.824;6.306;2022-09-03T04:43:39;101038.56;;;23.21;37.22
73455;BME280;61690;51.824;6.306;2022-09-03T04:46:08;101051.59;;;23.13;37.21
73455;BME280;61690;51.824;6.306;2022-09-03T04:48:36;101040.50;;;23.19;37.21
73455;BME280;61690;51.824;6.306;2022-09-03T04:51:08;101046.75;;;23.18;37.42
73455;BME280;61690;51.824;6.306;2022-09-03T04:53:38;101044.94;;;23.18;37.54
73455;BME280;61690;51.824;6.306;2022-09-03T04:56:14;101044.09;;;23.18;37.12
73455;BME280;61690;51.824;6.306;2022-09-03T04:58:41;101047.97;;;23.14;37.59
73455;BME280;61690;51.824;6.306;2022-09-03T05:01:16;101046.16;;;23.14;37.72
73455;BME280;61690;51.824;6.306;2022-09-03T05:03:42;101050.13;;;23.20;37.46
73455;BME280;61690;51.824;6.306;2022-09-03T05:06:07;101040.97;;;23.13;37.53
73455;BME280;61690;51.824;6.306;2022-09-03T05:08:34;101035.31;;;23.17;37.39
73455;BME280;61690;51.824;6.306;2022-09-03T05:11:04;101035.66;;;23.13;37.23
73455;BME280;61690;51.824;6.306;2022-09-03T05:13:31;101032.19;;;23.12;37.44
73455;BME280;61690;51.824;6.306;2022-09-03T05:16:03;101041.56;;;23.16;37.38
73455;BME280;61690;51.824;6.306;2022-09-03T05:18:29;101044.63;;;23.12;37.45
73455;BME280;61690;51.824;6.306;2022-09-03T05:21:10;101045.44;;;23.12;37.36
73455;BME280;61690;51.824;6.306;2022-09-03T05:23:41;101043.16;;;23.19;37.23
73455;BME280;61690;51.824;6.306;2022-09-03T05:26:10;101043.63;;;23.13;37.45
73455;BME280;61690;51.824;6.306;2022-09-03T05:28:38;101053.03;;;23.17;37.53
73455;BME280;61690;51.824;6.306;2022-09-03T05:31:06;101042.19;;;23.08;37.43
73455;BME280;61690;51.824;6.306;2022-09-03T05:33:51;101048.22;;;23.10;37.46
73455;BME280;61690;51.824;6.306;2022-09-03T05:36:20;101041.56;;;23.16;37.24
73455;BME280;61690;51.824;6.306;2022-09-03T05:38:47;101042.44;;;23.17;37.34
73455;BME280;61690;51.824;6.306;2022-09-03T05:41:14;101044.38;;;23.15;37.23
73455;BME280;61690;51.824;6.306;2022-09-03T05:43:40;101050.50;;;23.15;37.46
73455;BME280;61690;51.824;6.306;2022-09-03T05:46:08;101042.69;;;23.14;37.68
73455;BME280;61690;51.824;6.306;2022-09-03T05:48:35;101045.91;;;22.74;35.41
73455;BME280;61690;51.824;6.306;2022-09-03T05:51:03;101045.25;;;21.68;35.38
73455;BME280;61690;51.824;6.306;2022-09-03T05:53:30;101036.25;;;21.35;35.92
73455;BME280;61690;51.824;6.306;2022-09-03T05:56:02;101049.06;;;21.18;36.18
73455;BME280;61690;51.824;6.306;2022-09-03T05:58:36;101052.88;;;21.13;36.19
73455;BME280;61690;51.824;6.306;2022-09-03T06:01:15;101047.53;;;21.02;36.32
73455;BME280;61690;51.824;6.306;2022-09-03T06:03:41;101059.31;;;20.98;36.77
73455;BME280;61690;51.824;6.306;2022-09-03T06:06:08;101050.19;;;21.02;36.79
73455;BME280;61690;51.824;6.306;2022-09-03T06:08:34;101054.72;;;21.24;36.60
73455;BME280;61690;51.824;6.306;2022-09-03T06:11:01;101056.47;;;21.12;36.57
73455;BME280;61690;51.824;6.306;2022-09-03T06:13:31;101056.09;;;21.06;36.92
73455;BME280;61690;51.824;6.306;2022-09-03T06:15:58;101057.59;;;21.21;36.72
73455;BME280;61690;51.824;6.306;2022-09-03T06:18:25;101062.00;;;21.09;36.71
73455;BME280;61690;51.824;6.306;2022-09-03T06:20:55;101061.06;;;20.98;36.88
73455;BME280;61690;51.824;6.306;2022-09-03T06:23:22;101053.06;;;20.86;36.98
73455;BME280;61690;51.824;6.306;2022-09-03T06:25:47;101054.34;;;21.18;36.84
73455;BME280;61690;51.824;6.306;2022-09-03T06:28:13;101057.13;;;21.03;36.88
73455;BME280;61690;51.824;6.306;2022-09-03T06:30:39;101059.22;;;21.11;36.65
73455;BME280;61690;51.824;6.306;2022-09-03T06:33:05;101058.38;;;21.10;36.50
73455;BME280;61690;51.824;6.306;2022-09-03T06:35:31;101056.94;;;21.06;36.80
73455;BME280;61690;51.824;6.306;2022-09-03T06:37:56;101053.09;;;21.10;36.86
73455;BME280;61690;51.824;6.306;2022-09-03T06:40:21;101058.16;;;21.13;36.78
73455;BME280;61690;51.824;6.306;2022-09-03T06:42:56;101065.38;;;21.11;36.62
73455;BME280;61690;51.824;6.306;2022-09-03T06:45:27;101056.16;;;21.28;36.44
73455;BME280;61690;51.824;6.306;2022-09-03T06:47:53;101056.25;;;21.15;36.70
73455;BME280;61690;51.824;6.306;2022-09-03T06:50:19;101046.88;;;21.11;36.76
73455;BME280;61690;51.824;6.306;2022-09-03T06:52:50;101058.13;;;21.02;36.90
73455;BME280;61690;51.824;6.306;2022-09-03T06:55:15;101061.25;;;21.07;36.92
73455;BME280;61690;51.824;6.306;2022-09-03T06:57:40;101054.28;;;21.06;36.91
73455;BME280;61690;51.824;6.306;2022-09-03T07:00:06;101055.19;;;21.18;36.29
73455;BME280;61690;51.824;6.306;2022-09-03T07:02:32;101051.44;;;21.09;36.73
73455;BME280;61690;51.824;6.306;2022-09-03T07:04:57;101058.78;;;21.17;36.50
73455;BME280;61690;51.824;6.306;2022-09-03T07:07:23;101056.31;;;21.27;36.27
73455;BME280;61690;51.824;6.306;2022-09-03T07:09:48;101063.09;;;21.42;36.04
73455;BME280;61690;51.824;6.306;2022-09-03T07:12:13;101052.91;;;21.49;36.12
73455;BME280;61690;51.824;6.306;2022-09-03T07:14:40;101058.22;;;21.49;36.07
73455;BME280;61690;51.824;6.306;2022-09-03T07:17:06;101057.31;;;21.37;36.41
73455;BME280;61690;51.824;6.306;2022-09-03T07:19:31;101060.28;;;21.57;36.26
73455;BME280;61690;51.824;6.306;2022-09-03T07:21:57;101062.66;;;21.48;36.50
73455;BME280;61690;51.824;6.306;2022-09-03T07:24:22;101050.91;;;21.64;36.19
73455;BME280;61690;51.824;6.306;2022-09-03T07:26:47;101054.91;;;21.69;35.97
73455;BME280;61690;51.824;6.306;2022-09-03T07:29:13;101058.78;;;21.77;36.02
73455;BME280;61690;51.824;6.306;2022-09-03T07:31:41;101063.00;;;21.79;35.69
73455;BME280;61690;51.824;6.306;2022-09-03T07:34:09;101056.72;;;21.80;36.04
73455;BME280;61690;51.824;6.306;2022-09-03T07:36:44;101059.84;;;21.74;36.08
73455;BME280;61690;51.824;6.306;2022-09-03T07:39:15;101057.72;;;21.90;36.04
73455;BME280;61690;51.824;6.306;2022-09-03T07:41:43;101047.81;;;21.81;36.18
73455;BME280;61690;51.824;6.306;2022-09-03T07:44:10;101053.72;;;21.85;35.58
73455;BME280;61690;51.824;6.306;2022-09-03T07:46:36;101048.53;;;21.83;36.06
73455;BME280;61690;51.824;6.306;2022-09-03T07:49:03;101051.94;;;21.97;35.70
73455;BME280;61690;51.824;6.306;2022-09-03T07:51:32;101049.78;;;22.02;36.00
73455;BME280;61690;51.824;6.306;2022-09-03T07:53:59;101049.06;;;22.00;35.94
73455;BME280;61690;51.824;6.306;2022-09-03T07:56:29;101054.09;;;21.91;36.28
73455;BME280;61690;51.824;6.306;2022-09-03T07:58:59;101054.56;;;21.85;36.24
73455;BME280;61690;51.824;6.306;2022-09-03T08:01:26;101054.22;;;21.90;36.24
73455;BME280;61690;51.824;6.306;2022-09-03T08:03:59;101054.72;;;22.06;35.69
73455;BME280;61690;51.824;6.306;2022-09-03T08:06:26;101050.25;;;22.18;35.79
73455;BME280;61690;51.824;6.306;2022-09-03T08:08:57;101047.25;;;22.00;36.15
73455;BME280;61690;51.824;6.306;2022-09-03T08:11:23;101043.50;;;22.14;36.19
73455;BME280;61690;51.824;6.306;2022-09-03T08:13:56;101051.56;;;22.12;36.19
73455;BME280;61690;51.824;6.306;2022-09-03T08:16:26;101047.97;;;22.13;35.97
73455;BME280;61690;51.824;6.306;2022-09-03T08:18:53;101048.94;;;22.24;36.03
73455;BME280;61690;51.824;6.306;2022-09-03T08:21:19;101051.84;;;22.32;36.01
73455;BME280;61690;51.824;6.306;2022-09-03T08:23:50;101054.16;;;22.25;36.13
73455;BME280;61690;51.824;6.306;2022-09-03T08:26:17;101056.91;;;22.35;35.93
73455;BME280;61690;51.824;6.306;2022-09-03T08:28:43;101050.50;;;22.38;35.85
73455;BME280;61690;51.824;6.306;2022-09-03T08:31:18;101049.34;;;22.42;35.82
73455;BME280;61690;51.824;6.306;2022-09-03T08:33:48;101057.03;;;22.45;36.04
73455;BME280;61690;51.824;6.306;2022-09-03T08:36:23;101057.63;;;22.48;35.96
73455;BME280;61690;51.824;6.306;2022-09-03T08:38:52;101057.50;;;22.50;35.50
73455;BME280;61690;51.824;6.306;2022-09-03T08:41:47;101058.13;;;22.54;35.64
73455;BME280;61690;51.824;6.306;2022-09-03T08:44:14;101051.00;;;22.54;35.48
73455;BME280;61690;51.824;6.306;2022-09-03T08:46:58;101059.06;;;22.52;35.44
73455;BME280;61690;51.824;6.306;2022-09-03T08:49:47;101052.81;;;22.54;35.69
73455;BME280;61690;51.824;6.306;2022-09-03T08:54:53;101059.56;;;22.58;35.71
73455;BME280;61690;51.824;6.306;2022-09-03T08:57:20;101066.41;;;22.60;35.61
73455;BME280;61690;51.824;6.306;2022-09-03T08:59:48;101057.63;;;22.60;35.32
73455;BME280;61690;51.824;6.306;2022-09-03T09:05:16;101061.59;;;22.65;35.38
73455;BME280;61690;51.824;6.306;2022-09-03T09:08:02;101058.09;;;22.65;35.71
73455;BME280;61690;51.824;6.306;2022-09-03T09:10:40;101059.66;;;22.67;35.70
73455;BME280;61690;51.824;6.306;2022-09-03T09:16:00;101055.31;;;22.66;35.66
73455;BME280;61690;51.824;6.306;2022-09-03T09:22:09;101045.91;;;22.74;35.76
73455;BME280;61690;51.824;6.306;2022-09-03T09:24:41;101056.63;;;22.72;35.59
73455;BME280;61690;51.824;6.306;2022-09-03T09:27:08;101052.75;;;22.76;35.37
73455;BME280;61690;51.824;6.306;2022-09-03T09:29:36;101058.81;;;22.78;35.37
73455;BME280;61690;51.824;6.306;2022-09-03T09:32:03;101049.03;;;22.79;35.49
73455;BME280;61690;51.824;6.306;2022-09-03T09:34:35;101049.97;;;22.78;35.64
73455;BME280;61690;51.824;6.306;2022-09-03T09:37:05;101047.09;;;22.81;35.69
73455;BME280;61690;51.824;6.306;2022-09-03T09:39:32;101055.75;;;22.83;35.54
73455;BME280;61690;51.824;6.306;2022-09-03T09:42:04;101056.59;;;22.83;35.54
73455;BME280;61690;51.824;6.306;2022-09-03T09:44:34;101050.47;;;22.83;35.54
73455;BME280;61690;51.824;6.306;2022-09-03T09:47:12;101053.13;;;22.83;35.57
73455;BME280;61690;51.824;6.306;2022-09-03T09:49:55;101055.75;;;22.83;35.61
73455;BME280;61690;51.824;6.306;2022-09-03T09:52:24;101056.25;;;22.88;35.56
73455;BME280;61690;51.824;6.306;2022-09-03T09:54:52;101057.09;;;22.88;35.25
73455;BME280;61690;51.824;6.306;2022-09-03T09:57:24;101054.44;;;22.88;35.47
73455;BME280;61690;51.824;6.306;2022-09-03T10:00:03;101056.84;;;22.92;35.26
73455;BME280;61690;51.824;6.306;2022-09-03T10:02:33;101054.44;;;22.88;35.58
73455;BME280;61690;51.824;6.306;2022-09-03T10:05:14;101052.81;;;22.97;35.53
73455;BME280;61690;51.824;6.306;2022-09-03T10:07:40;101047.31;;;22.89;35.75
73455;BME280;61690;51.824;6.306;2022-09-03T10:10:13;101042.72;;;22.91;35.53
73455;BME280;61690;51.824;6.306;2022-09-03T10:13:00;101055.63;;;22.96;35.49
73455;BME280;61690;51.824;6.306;2022-09-03T10:15:34;101063.44;;;22.97;35.69
73455;BME280;61690;51.824;6.306;2022-09-03T10:21:07;101052.38;;;22.92;35.56
73455;BME280;61690;51.824;6.306;2022-09-03T10:26:18;101055.84;;;22.93;35.68
73455;BME280;61690;51.824;6.306;2022-09-03T10:28:50;101052.38;;;22.92;35.82
73455;BME280;61690;51.824;6.306;2022-09-03T10:37:24;101054.75;;;22.95;35.79
73455;BME280;61690;51.824;6.306;2022-09-03T10:40:05;101045.13;;;23.05;35.52
73455;BME280;61690;51.824;6.306;2022-09-03T10:42:54;101038.25;;;23.03;35.39
73455;BME280;61690;51.824;6.306;2022-09-03T10:45:41;101041.50;;;23.06;35.45
73455;BME280;61690;51.824;6.306;2022-09-03T10:53:36;101040.25;;;23.10;35.87
73455;BME280;61690;51.824;6.306;2022-09-03T10:56:27;101041.38;;;23.08;36.10
73455;BME280;61690;51.824;6.306;2022-09-03T10:59:06;101045.00;;;23.07;36.43
73455;BME280;61690;51.824;6.306;2022-09-03T11:01:45;101034.72;;;23.14;35.85
73455;BME280;61690;51.824;6.306;2022-09-03T11:07:03;101042.69;;;23.14;36.26
73455;BME280;61690;51.824;6.306;2022-09-03T11:14:50;101028.44;;;23.15;36.13
73455;BME280;61690;51.824;6.306;2022-09-03T11:17:22;101024.69;;;23.17;36.24
73455;BME280;61690;51.824;6.306;2022-09-03T11:22:36;101024.28;;;23.22;36.07
73455;BME280;61690;51.824;6.306;2022-09-03T11:25:04;101021.63;;;23.22;36.16
73455;BME280;61690;51.824;6.306;2022-09-03T11:30:13;101016.09;;;23.25;36.11
73455;BME280;61690;51.824;6.306;2022-09-03T11:32:49;101013.19;;;23.28;36.04
73455;BME280;61690;51.824;6.306;2022-09-03T11:40:53;101009.78;;;23.26;36.21
73455;BME280;61690;51.824;6.306;2022-09-03T11:49:29;101012.09;;;23.31;36.44
73455;BME280;61690;51.824;6.306;2022-09-03T11:51:36;101002.31;;;23.31;36.31
73455;BME280;61690;51.824;6.306;2022-09-03T11:56:31;101000.63;;;23.30;36.49
73455;BME280;61690;51.824;6.306;2022-09-03T11:59:05;100997.00;;;23.31;36.33
73455;BME280;61690;51.824;6.306;2022-09-03T12:02:00;100998.94;;;23.29;36.20
73455;BME280;61690;51.824;6.306;2022-09-03T12:07:35;101000.94;;;23.37;36.27
73455;BME280;61690;51.824;6.306;2022-09-03T12:10:24;101004.19;;;23.40;36.32
73455;BME280;61690;51.824;6.306;2022-09-03T12:13:18;100998.16;;;23.38;36.30
73455;BME280;61690;51.824;6.306;2022-09-03T12:16:11;101004.06;;;23.42;36.19
73455;BME280;61690;51.824;6.306;2022-09-03T12:18:44;100998.34;;;23.46;36.16
73455;BME280;61690;51.824;6.306;2022-09-03T12:21:15;101006.31;;;23.46;36.22
73455;BME280;61690;51.824;6.306;2022-09-03T12:23:50;100998.34;;;23.46;36.23
73455;BME280;61690;51.824;6.306;2022-09-03T12:28:53;100996.53;;;23.47;36.28
73455;BME280;61690;51.824;6.306;2022-09-03T12:31:30;100999.59;;;23.42;36.42
73455;BME280;61690;51.824;6.306;2022-09-03T12:34:00;100986.19;;;23.44;36.44
73455;BME280;61690;51.824;6.306;2022-09-03T12:36:53;100991.50;;;23.44;36.59
73455;BME280;61690;51.824;6.306;2022-09-03T12:39:23;100987.59;;;23.48;36.49
73455;BME280;61690;51.824;6.306;2022-09-03T12:44:46;100984.13;;;23.47;36.38
73455;BME280;61690;51.824;6.306;2022-09-03T12:49:40;100977.69;;;23.50;36.16
73455;BME280;61690;51.824;6.306;2022-09-03T12:57:51;100976.47;;;23.54;35.90
73455;BME280;61690;51.824;6.306;2022-09-03T13:00:27;100977.03;;;23.58;36.23
73455;BME280;61690;51.824;6.306;2022-09-03T13:03:02;100979.00;;;23.56;36.32
73455;BME280;61690;51.824;6.306;2022-09-03T13:05:33;100976.09;;;23.59;36.18
73455;BME280;61690;51.824;6.306;2022-09-03T13:08:02;100971.31;;;23.62;36.13
73455;BME280;61690;51.824;6.306;2022-09-03T13:10:37;100967.84;;;23.62;36.18
73455;BME280;61690;51.824;6.306;2022-09-03T13:13:26;100969.53;;;23.63;36.37
73455;BME280;61690;51.824;6.306;2022-09-03T13:16:17;100969.41;;;23.64;36.66
73455;BME280;61690;51.824;6.306;2022-09-03T13:18:51;100970.94;;;23.67;36.88
73455;BME280;61690;51.824;6.306;2022-09-03T13:24:27;100972.63;;;23.68;36.71
73455;BME280;61690;51.824;6.306;2022-09-03T13:30:22;100975.72;;;23.73;37.00
73455;BME280;61690;51.824;6.306;2022-09-03T13:33:20;100968.16;;;23.68;36.90
73455;BME280;61690;51.824;6.306;2022-09-03T13:35:52;100974.06;;;23.72;37.04
73455;BME280;61690;51.824;6.306;2022-09-03T13:42:08;100966.63;;;23.76;37.58
73455;BME280;61690;51.824;6.306;2022-09-03T13:47:02;100976.22;;;23.78;37.62
73455;BME280;61690;51.824;6.306;2022-09-03T13:55:03;100967.03;;;23.92;37.67
73455;BME280;61690;51.824;6.306;2022-09-03T13:58:01;100964.06;;;23.85;37.78
73455;BME280;61690;51.824;6.306;2022-09-03T14:00:33;100975.97;;;23.91;37.79
73455;BME280;61690;51.824;6.306;2022-09-03T14:03:07;100967.75;;;23.94;37.79
73455;BME280;61690;51.824;6.306;2022-09-03T14:19:55;100972.63;;;23.99;38.27
73455;BME280;61690;51.824;6.306;2022-09-03T14:25:24;100970.69;;;24.01;38.19
73455;BME280;61690;51.824;6.306;2022-09-03T14:27:50;100973.63;;;23.98;38.42
73455;BME280;61690;51.824;6.306;2022-09-03T14:30:37;100973.63;;;23.98;38.08
73455;BME280;61690;51.824;6.306;2022-09-03T14:50:02;100977.94;;;23.99;39.05
73455;BME280;61690;51.824;6.306;2022-09-03T15:03:33;100977.88;;;24.20;39.64
73455;BME280;61690;51.824;6.306;2022-09-03T15:11:17;100972.31;;;24.23;39.71
73455;BME280;61690;51.824;6.306;2022-09-03T15:13:47;100965.16;;;24.23;40.10
73455;BME280;61690;51.824;6.306;2022-09-03T15:28:04;100979.88;;;24.27;39.73
73455;BME280;61690;51.824;6.306;2022-09-03T15:31:00;100978.19;;;24.26;39.78
73455;BME280;61690;51.824;6.306;2022-09-03T15:36:50;100973.44;;;24.20;39.71
73455;BME280;61690;51.824;6.306;2022-09-03T15:39:29;100976.66;;;24.24;39.45
73455;BME280;61690;51.824;6.306;2022-09-03T15:41:58;100978.19;;;24.26;39.19
73455;BME280;61690;51.824;6.306;2022-09-03T15:44:33;100979.31;;;24.24;39.80
73455;BME280;61690;51.824;6.306;2022-09-03T15:47:08;100979.31;;;24.24;39.76
73455;BME280;61690;51.824;6.306;2022-09-03T15:49:52;100978.78;;;24.30;39.72
73455;BME280;61690;51.824;6.306;2022-09-03T15:55:33;100981.44;;;24.30;39.74
73455;BME280;61690;51.824;6.306;2022-09-03T15:58:27;100984.09;;;24.30;39.94
73455;BME280;61690;51.824;6.306;2022-09-03T16:00:59;100988.84;;;24.26;40.36
73455;BME280;61690;51.824;6.306;2022-09-03T16:03:37;100988.53;;;24.30;40.50
73455;BME280;61690;51.824;6.306;2022-09-03T16:06:24;100988.25;;;24.23;40.59
73455;BME280;61690;51.824;6.306;2022-09-03T16:08:54;100985.63;;;24.33;40.84
73455;BME280;61690;51.824;6.306;2022-09-03T16:11:46;100993.03;;;24.39;40.37
73455;BME280;61690;51.824;6.306;2022-09-03T16:14:38;100989.28;;;24.32;40.49
73455;BME280;61690;51.824;6.306;2022-09-03T16:17:53;100987.75;;;24.49;39.46
73455;BME280;61690;51.824;6.306;2022-09-03T16:20:19;100992.84;;;24.52;38.93
73455;BME280;61690;51.824;6.306;2022-09-03T16:25:50;100988.94;;;24.65;37.91
73455;BME280;61690;51.824;6.306;2022-09-03T16:28:51;100988.91;;;24.56;37.98
73455;BME280;61690;51.824;6.306;2022-09-03T16:31:42;100982.78;;;24.65;38.15
73455;BME280;61690;51.824;6.306;2022-09-03T16:34:23;100986.28;;;24.65;38.07
73455;BME280;61690;51.824;6.306;2022-09-03T16:37:39;100987.66;;;24.70;37.46
73455;BME280;61690;51.824;6.306;2022-09-03T16:42:33;100989.50;;;24.59;38.03
73455;BME280;61690;51.824;6.306;2022-09-03T16:55:55;100998.03;;;24.63;37.42